SWA699 KBNA-KMEM
Flight info
| Callsign | SWA699 |
|---|---|
| Flight time | 0h 36m |
| Altitude | 22000 |
| Route | DANLS4 DANLS SPKER BLUZZ5 |
| Aircraft | B738/M-SADE2E3GIJ4RWZ/LB1D1 |
Departure
| Time | 2026-05-04 10:36 |
|---|---|
| Airport | Nashville International Airport (KBNA) |
Arrival
| Time | 2026-05-04 11:12 |
|---|---|
| Airport | Memphis International Airport (KMEM) |
| Time | Latitude | Longitude | Altitude | Speed | Heading |
|---|---|---|---|---|---|
| 2026-05-04 10:29 | 36.12724 | -86.66913 | 576 ft | 0 kts | 42° |
| 2026-05-04 10:30 | 36.12720 | -86.66918 | 578 ft | 2 kts | 42° |
| 2026-05-04 10:30 | 36.12708 | -86.66931 | 577 ft | 2 kts | 42° |
| 2026-05-04 10:30 | 36.12695 | -86.66945 | 578 ft | 2 kts | 42° |
| 2026-05-04 10:31 | 36.12684 | -86.66959 | 579 ft | 2 kts | 57° |
| 2026-05-04 10:31 | 36.12678 | -86.66978 | 578 ft | 2 kts | 102° |
| 2026-05-04 10:32 | 36.12657 | -86.66950 | 578 ft | 9 kts | 128° |
| 2026-05-04 10:33 | 36.12597 | -86.66885 | 580 ft | 13 kts | 178° |
| 2026-05-04 10:33 | 36.12515 | -86.66943 | 581 ft | 14 kts | 208° |
| 2026-05-04 10:33 | 36.12426 | -86.67002 | 584 ft | 14 kts | 210° |
| 2026-05-04 10:33 | 36.12349 | -86.67075 | 585 ft | 15 kts | 223° |
| 2026-05-04 10:34 | 36.12263 | -86.67178 | 586 ft | 19 kts | 224° |
| 2026-05-04 10:34 | 36.12206 | -86.67314 | 589 ft | 19 kts | 293° |
| 2026-05-04 10:34 | 36.12305 | -86.67449 | 588 ft | 23 kts | 313° |
| 2026-05-04 10:34 | 36.12421 | -86.67607 | 588 ft | 25 kts | 299° |
| 2026-05-04 10:35 | 36.12353 | -86.67774 | 584 ft | 23 kts | 262° |
| 2026-05-04 10:35 | 36.12390 | -86.67954 | 581 ft | 22 kts | 243° |
| 2026-05-04 10:35 | 36.12229 | -86.68039 | 579 ft | 48 kts | 198° |
| 2026-05-04 10:35 | 36.11576 | -86.68299 | 585 ft | 146 kts | 198° |
| 2026-05-04 10:36 | 36.10474 | -86.68739 | 1151 ft | 187 kts | 198° |
| 2026-05-04 10:36 | 36.09213 | -86.69235 | 2480 ft | 178 kts | 200° |
| 2026-05-04 10:36 | 36.08147 | -86.69948 | 3804 ft | 183 kts | 232° |
| 2026-05-04 10:36 | 36.07643 | -86.71475 | 4280 ft | 207 kts | 261° |
| 2026-05-04 10:37 | 36.07348 | -86.73332 | 4631 ft | 232 kts | 259° |
| 2026-05-04 10:37 | 36.06890 | -86.75372 | 5009 ft | 256 kts | 256° |
| 2026-05-04 10:37 | 36.06670 | -86.77568 | 5853 ft | 260 kts | 277° |
| 2026-05-04 10:37 | 36.07009 | -86.79767 | 6668 ft | 262 kts | 285° |
| 2026-05-04 10:39 | 36.09065 | -86.93145 | 8476 ft | 268 kts | 273° |
| 2026-05-04 10:39 | 36.09105 | -86.95420 | 9557 ft | 269 kts | 273° |
| 2026-05-04 10:39 | 36.09167 | -86.97753 | 10429 ft | 277 kts | 274° |
| 2026-05-04 10:40 | 36.09244 | -87.00240 | 10732 ft | 304 kts | 274° |
| 2026-05-04 10:40 | 36.09333 | -87.02972 | 10942 ft | 332 kts | 274° |
| 2026-05-04 10:40 | 36.09429 | -87.05905 | 11413 ft | 347 kts | 274° |
| 2026-05-04 10:40 | 36.09526 | -87.08913 | 12215 ft | 352 kts | 274° |
| 2026-05-04 10:41 | 36.09625 | -87.11948 | 13126 ft | 355 kts | 274° |
| 2026-05-04 10:41 | 36.09726 | -87.15008 | 13993 ft | 358 kts | 274° |
| 2026-05-04 10:41 | 36.09827 | -87.18095 | 14773 ft | 361 kts | 275° |
| 2026-05-04 10:41 | 36.09916 | -87.21205 | 15593 ft | 363 kts | 273° |
| 2026-05-04 10:42 | 36.09769 | -87.24337 | 16404 ft | 368 kts | 266° |
| 2026-05-04 10:42 | 36.09349 | -87.27478 | 17158 ft | 373 kts | 262° |
| 2026-05-04 10:42 | 36.08736 | -87.30609 | 17925 ft | 377 kts | 258° |
| 2026-05-04 10:42 | 36.07993 | -87.33729 | 18621 ft | 381 kts | 257° |
| 2026-05-04 10:43 | 36.07206 | -87.36870 | 19274 ft | 383 kts | 257° |
| 2026-05-04 10:44 | 36.02307 | -87.59593 | 22013 ft | 399 kts | 260° |
| 2026-05-04 10:45 | 36.01641 | -87.62866 | 22026 ft | 398 kts | 260° |
| 2026-05-04 10:45 | 36.00966 | -87.66176 | 22020 ft | 398 kts | 260° |
| 2026-05-04 10:45 | 36.00289 | -87.69495 | 22020 ft | 399 kts | 260° |
| 2026-05-04 10:45 | 35.99610 | -87.72817 | 22013 ft | 399 kts | 259° |
| 2026-05-04 10:46 | 35.98929 | -87.76138 | 22018 ft | 398 kts | 260° |
| 2026-05-04 10:46 | 35.98248 | -87.79458 | 22015 ft | 399 kts | 259° |
| 2026-05-04 10:46 | 35.97564 | -87.82784 | 22015 ft | 399 kts | 259° |
| 2026-05-04 10:46 | 35.96881 | -87.86099 | 22012 ft | 398 kts | 259° |
| 2026-05-04 10:47 | 35.96199 | -87.89409 | 22020 ft | 398 kts | 259° |
| 2026-05-04 10:47 | 35.95515 | -87.92723 | 22027 ft | 398 kts | 259° |
| 2026-05-04 10:47 | 35.94830 | -87.96037 | 22015 ft | 400 kts | 259° |
| 2026-05-04 10:47 | 35.94142 | -87.99361 | 22022 ft | 400 kts | 259° |
| 2026-05-04 10:49 | 35.89307 | -88.22572 | 22012 ft | 400 kts | 259° |
| 2026-05-04 10:49 | 35.88611 | -88.25894 | 22021 ft | 400 kts | 259° |
| 2026-05-04 10:50 | 35.87931 | -88.29218 | 22026 ft | 400 kts | 260° |
| 2026-05-04 10:51 | 35.83556 | -88.52582 | 22001 ft | 399 kts | 260° |
| 2026-05-04 10:52 | 35.82934 | -88.55847 | 21979 ft | 385 kts | 261° |
| 2026-05-04 10:52 | 35.82323 | -88.59043 | 21990 ft | 381 kts | 261° |
| 2026-05-04 10:52 | 35.81719 | -88.62216 | 21998 ft | 381 kts | 261° |
| 2026-05-04 10:54 | 35.77537 | -88.84061 | 18755 ft | 363 kts | 261° |
| 2026-05-04 10:54 | 35.76957 | -88.87073 | 18191 ft | 361 kts | 261° |
| 2026-05-04 10:56 | 35.72671 | -89.07390 | 14725 ft | 342 kts | 242° |
| 2026-05-04 10:56 | 35.71132 | -89.09650 | 14248 ft | 346 kts | 229° |
| 2026-05-04 10:56 | 35.69401 | -89.11717 | 13741 ft | 346 kts | 227° |
| 2026-05-04 10:57 | 35.67686 | -89.13783 | 13223 ft | 344 kts | 229° |
| 2026-05-04 10:57 | 35.66060 | -89.15925 | 12720 ft | 341 kts | 231° |
| 2026-05-04 10:57 | 35.64467 | -89.18081 | 12240 ft | 339 kts | 231° |
| 2026-05-04 10:57 | 35.62868 | -89.20198 | 11775 ft | 337 kts | 230° |
| 2026-05-04 10:58 | 35.61271 | -89.22270 | 11546 ft | 328 kts | 230° |
| 2026-05-04 10:58 | 35.59727 | -89.24278 | 11261 ft | 320 kts | 232° |
| 2026-05-04 10:58 | 35.58288 | -89.26355 | 10854 ft | 318 kts | 234° |
| 2026-05-04 10:58 | 35.56924 | -89.28438 | 10661 ft | 305 kts | 235° |
| 2026-05-04 10:59 | 35.55638 | -89.30408 | 10520 ft | 288 kts | 235° |
| 2026-05-04 10:59 | 35.54389 | -89.32307 | 10405 ft | 284 kts | 235° |
| 2026-05-04 10:59 | 35.53147 | -89.34178 | 10290 ft | 283 kts | 234° |
| 2026-05-04 10:59 | 35.51904 | -89.36038 | 10174 ft | 278 kts | 234° |
| 2026-05-04 11:00 | 35.50691 | -89.37844 | 10051 ft | 270 kts | 235° |
| 2026-05-04 11:01 | 35.44906 | -89.51497 | 8579 ft | 257 kts | 247° |
| 2026-05-04 11:02 | 35.44115 | -89.53433 | 8368 ft | 257 kts | 247° |
| 2026-05-04 11:02 | 35.43318 | -89.55397 | 8147 ft | 256 kts | 247° |
| 2026-05-04 11:05 | 35.32714 | -89.81820 | 5217 ft | 241 kts | 246° |
| 2026-05-04 11:06 | 35.31971 | -89.83668 | 5018 ft | 241 kts | 246° |
| 2026-05-04 11:06 | 35.31231 | -89.85510 | 4822 ft | 241 kts | 246° |
| 2026-05-04 11:06 | 35.30489 | -89.87354 | 4610 ft | 242 kts | 246° |
| 2026-05-04 11:06 | 35.29756 | -89.89177 | 4405 ft | 242 kts | 246° |
| 2026-05-04 11:08 | 35.21951 | -89.97884 | 3010 ft | 231 kts | 185° |
| 2026-05-04 11:10 | 35.12903 | -89.97775 | 1865 ft | 159 kts | 178° |
| 2026-05-04 11:12 | 35.05946 | -89.97618 | 458 ft | 116 kts | 179° |
| 2026-05-04 11:12 | 35.05184 | -89.97610 | 285 ft | 101 kts | 179° |
| 2026-05-04 11:12 | 35.04580 | -89.97594 | 301 ft | 63 kts | 179° |
| 2026-05-04 11:12 | 35.04247 | -89.97605 | 310 ft | 12 kts | 204° |
| 2026-05-04 11:13 | 35.04200 | -89.97686 | 313 ft | 13 kts | 253° |
| 2026-05-04 11:13 | 35.04184 | -89.97835 | 312 ft | 23 kts | 268° |
| 2026-05-04 11:13 | 35.04175 | -89.97965 | 311 ft | 15 kts | 202° |
| 2026-05-04 11:13 | 35.04139 | -89.97980 | 311 ft | 0 kts | 199° |